Time;durP1;ratioP1;P1;durP2;ratioP2;P2;SDS_P1;SDS_P2;PMS_P1;PMS_P2;Temp;Humidity;BMP_temperature;BMP_pressure;BME280_temperature;BME280_humidity;BME280_pressure;Samples;Min_cycle;Max_cycle;Signal;HPM_P1;HPM_P2
2022/02/05 00:00:05;;;;;;;;;;;;;;;5.34;59.48;99570.34;4316335;33;36411;-86
2022/02/05 00:01:43;;;;;;;;;;;;;;;5.19;59.48;99571.41;4301982;33;20088;-86
2022/02/05 00:04:12;;;;;;;;;;;;;;;5.25;59.48;99576.50;4317067;33;20008;-86
2022/02/05 00:06:41;;;;;;;;;;;;;;;5.13;59.47;99571.50;4305567;33;20022;-86
2022/02/05 00:09:22;;;;;;;;;;;;;;;5.05;59.46;99568.16;4318304;33;20000;-86
2022/02/05 00:20:22;;;;;;;;;;;;;;;5.34;59.48;99591.00;4318410;33;20010;-87
2022/02/05 00:39:17;;;;;;;;;;;;;;;4.92;59.45;99591.53;4318451;33;20612;-86
2022/02/05 00:41:52;;;;;;;;;;;;;;;4.89;59.45;99614.78;4318261;33;19992;-86
2022/02/05 00:44:18;;;;;;;;;;;;;;;5.03;59.46;99611.19;4306084;33;20006;-87
2022/02/05 00:46:44;;;;;;;;;;;;;;;4.95;59.46;99611.25;4304822;33;19992;-86
2022/02/05 00:49:09;;;;;;;;;;;;;;;4.99;59.45;99614.69;4304746;33;20471;-86
2022/02/05 00:51:44;;;;;;;;;;;;;;;4.91;59.45;99607.00;4304834;33;20065;-86
2022/02/05 00:54:13;;;;;;;;;;;;;;;4.76;59.45;99599.47;4293583;33;19996;-87
2022/02/05 00:59:13;;;;;;;;;;;;;;;5.01;59.46;99600.03;4318031;33;19992;-87
2022/02/05 01:01:39;;;;;;;;;;;;;;;5.02;59.46;99581.97;4318179;33;20310;-85
2022/02/05 01:04:04;;;;;;;;;;;;;;;5.04;59.46;99598.28;4318001;33;19980;-85
2022/02/05 01:06:29;;;;;;;;;;;;;;;5.25;59.48;99610.06;4303901;33;28233;-85
2022/02/05 01:08:54;;;;;;;;;;;;;;;5.07;59.46;99571.59;4304470;33;20000;-85
2022/02/05 01:11:19;;;;;;;;;;;;;;;5.18;59.47;99586.03;4318101;33;20004;-85
2022/02/05 01:13:45;;;;;;;;;;;;;;;5.12;59.47;99599.03;4318218;33;20032;-85
2022/02/05 01:16:25;;;;;;;;;;;;;;;4.92;59.45;99585.50;4318137;33;20739;-85
2022/02/05 01:18:50;;;;;;;;;;;;;;;4.82;59.45;99577.03;4304622;33;20002;-84
2022/02/05 01:23:46;;;;;;;;;;;;;;;5.03;59.46;99572.50;4304808;33;20051;-85
2022/02/05 01:28:47;;;;;;;;;;;;;;;5.03;59.46;99562.19;4305316;33;19992;-86
2022/02/05 01:31:12;;;;;;;;;;;;;;;4.81;59.45;99562.44;4305024;33;19994;-87
2022/02/05 01:33:49;;;;;;;;;;;;;;;4.91;59.45;99566.59;4304087;33;21444;-87
2022/02/05 01:39:18;;;;;;;;;;;;;;;4.77;59.44;99567.66;4293656;33;20006;-85
2022/02/05 01:55:15;;;;;;;;;;;;;;;4.78;59.44;99553.88;4304723;33;20012;-85
2022/02/05 01:57:54;;;;;;;;;;;;;;;4.82;59.45;99551.25;4294794;33;19991;-86
2022/02/05 02:06:12;;;;;;;;;;;;;;;4.28;59.42;99556.12;4306273;33;19995;-86
2022/02/05 02:19:29;;;;;;;;;;;;;;;4.23;59.42;99572.47;4306016;33;20007;-85
2022/02/05 02:22:02;;;;;;;;;;;;;;;4.35;59.43;99567.22;4317255;33;19988;-85
2022/02/05 02:24:59;;;;;;;;;;;;;;;4.25;59.41;99561.28;4303844;33;20015;-85
2022/02/05 02:30:07;;;;;;;;;;;;;;;4.04;59.40;99560.66;4304510;33;19984;-84
2022/02/05 02:32:36;;;;;;;;;;;;;;;3.94;59.40;99559.87;4292202;33;20002;-85
2022/02/05 02:35:07;;;;;;;;;;;;;;;3.99;59.40;99553.81;4303619;33;19987;-85
2022/02/05 02:37:39;;;;;;;;;;;;;;;3.95;59.40;99570.16;4317214;33;19988;-85
2022/02/05 02:42:44;;;;;;;;;;;;;;;3.81;59.39;99560.84;4317052;33;19996;-86
2022/02/05 02:45:09;;;;;;;;;;;;;;;4.03;59.40;99559.81;4317167;33;19981;-86
2022/02/05 02:47:34;;;;;;;;;;;;;;;4.08;59.40;99550.31;4303612;33;19999;-86
2022/02/05 02:50:09;;;;;;;;;;;;;;;3.95;59.40;99562.44;4316927;33;20030;-86
2022/02/05 02:58:07;;;;;;;;;;;;;;;4.12;59.40;99559.72;4307777;33;20036;-86
2022/02/05 03:00:32;;;;;;;;;;;;;;;3.87;59.39;99565.94;4319023;33;20041;-86
2022/02/05 03:02:57;;;;;;;;;;;;;;;4.03;59.40;99564.97;4318969;33;20027;-86
2022/02/05 03:05:23;;;;;;;;;;;;;;;4.15;59.41;99564.84;4305545;33;19992;-86
2022/02/05 03:07:48;;;;;;;;;;;;;;;4.27;59.42;99571.63;4305204;33;20022;-85
2022/02/05 03:10:13;;;;;;;;;;;;;;;4.14;59.41;99570.00;4318879;33;20019;-86
2022/02/05 03:12:39;;;;;;;;;;;;;;;4.09;59.41;99570.06;4305475;33;19998;-86
2022/02/05 03:15:04;;;;;;;;;;;;;;;4.12;59.42;99569.16;4305334;33;19992;-86
2022/02/05 03:17:38;;;;;;;;;;;;;;;4.22;59.42;99560.47;4305338;33;20048;-86
2022/02/05 03:20:04;;;;;;;;;;;;;;;4.10;59.41;99574.34;4318721;33;20000;-85
2022/02/05 03:22:29;;;;;;;;;;;;;;;4.03;59.40;99570.12;4305238;33;20287;-84
2022/02/05 03:24:54;;;;;;;;;;;;;;;3.97;59.40;99575.28;4318717;33;19994;-85
2022/02/05 03:27:20;;;;;;;;;;;;;;;4.09;59.41;99569.19;4304879;33;20026;-85
2022/02/05 03:29:47;;;;;;;;;;;;;;;4.03;59.40;99576.97;4305350;33;19995;-85
2022/02/05 03:32:13;;;;;;;;;;;;;;;3.92;59.40;99577.06;4318891;33;20007;-85
2022/02/05 03:34:38;;;;;;;;;;;;;;;3.96;59.39;99578.72;4318757;33;19984;-85
2022/02/05 03:37:04;;;;;;;;;;;;;;;3.84;59.40;99584.84;4305446;33;20346;-85
2022/02/05 03:39:29;;;;;;;;;;;;;;;3.96;59.40;99571.84;4318680;33;19992;-85
2022/02/05 03:41:54;;;;;;;;;;;;;;;3.82;59.39;99580.59;4305433;33;19990;-85
2022/02/05 03:44:19;;;;;;;;;;;;;;;3.96;59.40;99581.31;4305385;33;20768;-85
2022/02/05 03:46:45;;;;;;;;;;;;;;;4.01;59.40;99587.28;4318209;33;25636;-85
2022/02/05 03:49:13;;;;;;;;;;;;;;;4.16;59.41;99594.88;4305169;33;20010;-85
2022/02/05 03:51:39;;;;;;;;;;;;;;;4.03;59.40;99603.59;4318549;33;19997;-85
2022/02/05 03:54:04;;;;;;;;;;;;;;;3.96;59.40;99594.19;4304599;33;26433;-85
2022/02/05 03:56:29;;;;;;;;;;;;;;;4.21;59.41;99603.41;4293058;33;20302;-85
2022/02/05 03:58:54;;;;;;;;;;;;;;;4.29;59.42;99603.38;4304488;33;26894;-85
2022/02/05 04:01:20;;;;;;;;;;;;;;;4.08;59.40;99604.41;4318738;33;19988;-85
2022/02/05 04:03:45;;;;;;;;;;;;;;;3.98;59.41;99598.44;4304965;33;20265;-86
2022/02/05 04:06:10;;;;;;;;;;;;;;;4.19;59.41;99596.56;4317645;33;19996;-85
2022/02/05 04:08:35;;;;;;;;;;;;;;;4.09;59.41;99603.53;4318108;33;20330;-85
2022/02/05 04:11:09;;;;;;;;;;;;;;;4.17;59.41;99603.47;4318530;33;20002;-85
2022/02/05 04:18:46;;;;;;;;;;;;;;;4.09;59.41;99588.09;4318554;33;20361;-85
2022/02/05 04:21:11;;;;;;;;;;;;;;;4.22;59.42;99594.81;4292723;33;20004;-85
2022/02/05 04:23:36;;;;;;;;;;;;;;;4.26;59.41;99613.72;4304172;33;28987;-84
2022/02/05 04:26:02;;;;;;;;;;;;;;;4.29;59.42;99613.69;4304538;33;25741;-84
2022/02/05 04:28:27;;;;;;;;;;;;;;;4.19;59.41;99599.16;4318344;33;20382;-86
2022/02/05 04:30:52;;;;;;;;;;;;;;;4.11;59.41;99603.53;4292348;33;29147;-86
2022/02/05 04:33:17;;;;;;;;;;;;;;;4.05;59.41;99609.59;4317941;33;23387;-86
2022/02/05 04:35:45;;;;;;;;;;;;;;;4.08;59.41;99603.56;4304278;33;29762;-86
2022/02/05 04:38:10;;;;;;;;;;;;;;;4.02;59.40;99612.16;4292867;33;20353;-86
2022/02/05 05:01:55;;;;;;;;;;;;;;;4.16;59.41;99630.09;4306862;33;20002;-84
2022/02/05 05:20:18;;;;;;;;;;;;;;;4.90;59.45;99636.25;4306632;33;20340;-86
2022/02/05 05:22:43;;;;;;;;;;;;;;;5.09;59.47;99639.50;4317449;33;21135;-86
2022/02/05 05:25:08;;;;;;;;;;;;;;;5.39;59.48;99643.41;4317307;33;33805;-84
2022/02/05 05:27:34;;;;;;;;;;;;;;;5.29;59.47;99644.41;4304574;33;20059;-85
2022/02/05 05:29:59;;;;;;;;;;;;;;;5.35;59.48;99649.50;4317947;33;20060;-84
2022/02/05 05:32:24;;;;;;;;;;;;;;;5.51;59.48;99648.44;4304634;33;19995;-84
2022/02/05 05:34:50;;;;;;;;;;;;;;;5.65;59.49;99649.09;4318016;33;20015;-84
2022/02/05 05:37:19;;;;;;;;;;;;;;;5.39;59.48;99654.59;4318073;33;19988;-84
2022/02/05 05:39:44;;;;;;;;;;;;;;;5.50;59.49;99652.75;4317927;33;19984;-84
2022/02/05 05:42:14;;;;;;;;;;;;;;;5.58;59.49;99660.38;4304512;33;20001;-84
2022/02/05 05:52:20;;;;;;;;;;;;;;;5.72;59.50;99668.81;4304363;33;20043;-84
2022/02/05 05:54:45;;;;;;;;;;;;;;;5.60;59.49;99674.13;4304448;33;20028;-85
2022/02/05 05:57:10;;;;;;;;;;;;;;;5.74;59.50;99677.38;4303925;33;24737;-86
2022/02/05 05:59:35;;;;;;;;;;;;;;;5.52;59.49;99674.22;4304527;33;19973;-85
2022/02/05 06:02:01;;;;;;;;;;;;;;;5.57;59.49;99681.91;4303459;33;30959;-85
2022/02/05 06:04:26;;;;;;;;;;;;;;;5.58;59.49;99677.59;4304102;33;20099;-85
2022/02/05 06:06:51;;;;;;;;;;;;;;;5.59;59.49;99693.06;4304088;33;19988;-85
2022/02/05 06:09:16;;;;;;;;;;;;;;;5.43;59.48;99694.13;4303257;33;24868;-85
2022/02/05 06:11:42;;;;;;;;;;;;;;;5.56;59.49;99687.94;4303392;33;22103;-85
2022/02/05 06:14:07;;;;;;;;;;;;;;;5.55;59.49;99687.09;4303029;33;27338;-85
2022/02/05 06:16:34;;;;;;;;;;;;;;;5.59;59.49;99690.50;4302540;33;20346;-85
2022/02/05 06:18:59;;;;;;;;;;;;;;;5.55;59.49;99688.81;4315687;33;20058;-85
2022/02/05 06:21:24;;;;;;;;;;;;;;;5.59;59.49;99700.81;4291084;33;19998;-86
2022/02/05 06:23:49;;;;;;;;;;;;;;;5.66;59.49;99689.53;4303174;33;20067;-82
2022/02/05 06:26:15;;;;;;;;;;;;;;;5.55;59.49;99710.34;4303526;33;19996;-82
2022/02/05 06:28:40;;;;;;;;;;;;;;;5.73;59.50;99709.25;4317239;33;19995;-84
2022/02/05 06:31:05;;;;;;;;;;;;;;;5.80;59.50;99710.03;4304360;33;34478;-83
2022/02/05 06:33:30;;;;;;;;;;;;;;;5.69;59.50;99709.31;4318299;33;31663;-83
2022/02/05 06:35:56;;;;;;;;;;;;;;;5.81;59.50;99710.00;4305198;33;20342;-83
2022/02/05 06:38:21;;;;;;;;;;;;;;;5.78;59.50;99719.53;4318422;33;24963;-83
2022/02/05 06:40:46;;;;;;;;;;;;;;;5.83;59.51;99718.56;4319093;33;20337;-83
2022/02/05 06:43:11;;;;;;;;;;;;;;;5.84;59.51;99727.19;4318943;33;20033;-83
2022/02/05 06:45:37;;;;;;;;;;;;;;;5.97;59.51;99740.84;4305660;33;20315;-83
2022/02/05 06:48:02;;;;;;;;;;;;;;;5.96;59.51;99744.28;4318982;33;20008;-83
2022/02/05 06:50:28;;;;;;;;;;;;;;;6.17;59.52;99740.56;4318826;33;19979;-83
2022/02/05 06:52:53;;;;;;;;;;;;;;;6.19;59.52;99742.25;4305475;33;20030;-83
2022/02/05 06:55:18;;;;;;;;;;;;;;;6.35;59.54;99745.44;4304956;33;27475;-83
2022/02/05 06:57:43;;;;;;;;;;;;;;;6.52;59.54;99760.72;4318879;33;20250;-83
2022/02/05 07:00:10;;;;;;;;;;;;;;;6.43;59.54;99765.16;4318391;33;30143;-82
2022/02/05 07:02:35;;;;;;;;;;;;;;;6.68;59.55;99773.37;4305648;33;19984;-83
2022/02/05 07:05:00;;;;;;;;;;;;;;;6.78;59.56;99763.72;4317307;33;20514;-82
2022/02/05 07:07:25;;;;;;;;;;;;;;;6.82;59.56;99767.13;4318863;33;19981;-83
2022/02/05 07:09:51;;;;;;;;;;;;;;;6.81;59.56;99774.03;4305585;33;19996;-83
2022/02/05 07:12:16;;;;;;;;;;;;;;;7.05;59.58;99765.84;4319187;33;21142;-83
2022/02/05 07:15:07;;;;;;;;;;;;;;;7.16;59.58;99773.44;4319240;33;20012;-84
2022/02/05 07:20:05;;;;;;;;;;;;;;;7.59;59.60;99765.72;4318966;33;19976;-83
2022/02/05 07:22:35;;;;;;;;;;;;;;;7.62;59.61;99777.75;4318492;33;19988;-83
2022/02/05 07:29:13;;;;;;;;;;;;;;;7.81;59.62;99773.06;4318991;33;19996;-83
2022/02/05 07:30:36;;;;;;;;;;;;;;;7.90;59.62;99778.06;4319163;33;20002;-83
2022/02/05 07:33:01;;;;;;;;;;;;;;;8.06;59.62;99776.88;4305034;33;25956;-83
2022/02/05 07:35:26;;;;;;;;;;;;;;;8.04;59.62;99778.59;4305096;33;22041;-83
2022/02/05 07:37:55;;;;;;;;;;;;;;;8.20;59.64;99785.19;4305432;33;20330;-83
2022/02/05 07:40:20;;;;;;;;;;;;;;;8.39;59.65;99788.25;4318822;33;19976;-83
2022/02/05 07:42:46;;;;;;;;;;;;;;;8.31;59.64;99791.00;4318896;33;20040;-83
2022/02/05 07:45:11;;;;;;;;;;;;;;;8.27;59.64;99810.06;4318236;33;27840;-83
2022/02/05 07:47:36;;;;;;;;;;;;;;;8.17;59.64;99805.13;4318248;33;20019;-83
2022/02/05 07:50:02;;;;;;;;;;;;;;;8.27;59.64;99814.41;4305313;33;19995;-83
2022/02/05 07:52:27;;;;;;;;;;;;;;;8.28;59.63;99809.22;4318884;33;20044;-83
2022/02/05 07:54:52;;;;;;;;;;;;;;;8.25;59.64;99803.22;4318187;33;27373;-83
2022/02/05 07:57:17;;;;;;;;;;;;;;;8.38;59.65;99789.16;4318135;33;27539;-83
2022/02/05 07:59:43;;;;;;;;;;;;;;;8.29;59.65;99800.56;4305092;33;20349;-83
2022/02/05 08:02:08;;;;;;;;;;;;;;;8.32;59.64;99800.47;4318840;33;20291;-83
2022/02/05 08:04:34;;;;;;;;;;;;;;;8.51;59.66;99813.91;4318835;33;20003;-83
2022/02/05 08:07:01;;;;;;;;;;;;;;;8.59;59.66;99829.31;4318739;33;19984;-83
2022/02/05 08:09:40;;;;;;;;;;;;;;;8.73;59.66;99814.25;4318683;33;19972;-83
2022/02/05 08:12:09;;;;;;;;;;;;;;;8.74;59.67;99823.75;4317214;33;19993;-83
2022/02/05 08:14:39;;;;;;;;;;;;;;;8.72;59.67;99820.34;4317159;33;20010;-83
2022/02/05 08:17:14;;;;;;;;;;;;;;;8.76;59.67;99819.41;4305483;33;20056;-83
2022/02/05 08:19:39;;;;;;;;;;;;;;;8.60;59.66;99815.47;4318805;33;20015;-83
2022/02/05 08:22:05;;;;;;;;;;;;;;;8.73;59.66;99821.19;4318552;33;20004;-82
2022/02/05 08:24:30;;;;;;;;;;;;;;;8.96;59.67;99818.06;4305282;33;20016;-83
2022/02/05 08:26:55;;;;;;;;;;;;;;;9.18;59.68;99827.03;4318569;33;20031;-84
2022/02/05 08:29:21;;;;;;;;;;;;;;;9.03;59.68;99823.09;4317726;33;31971;-82
2022/02/05 08:31:46;;;;;;;;;;;;;;;9.01;59.68;99848.22;4305425;33;19988;-83
2022/02/05 08:34:12;;;;;;;;;;;;;;;8.57;59.65;99852.72;4318578;33;20317;-83
2022/02/05 08:36:44;;;;;;;;;;;;;;;8.51;59.66;99841.59;4304996;33;20039;-83
2022/02/05 08:39:09;;;;;;;;;;;;;;;8.33;59.64;99837.66;4305014;33;19984;-84
2022/02/05 08:41:35;;;;;;;;;;;;;;;8.25;59.64;99855.09;4316732;33;20003;-82
2022/02/05 08:44:00;;;;;;;;;;;;;;;8.16;59.63;99826.75;4318286;33;20082;-82
2022/02/05 08:46:25;;;;;;;;;;;;;;;8.15;59.64;99830.25;4317903;33;30083;-83
2022/02/05 08:48:50;;;;;;;;;;;;;;;8.02;59.63;99860.75;4303450;33;33237;-83
2022/02/05 08:51:15;;;;;;;;;;;;;;;8.23;59.64;99852.53;4304659;33;20047;-82
2022/02/05 08:53:41;;;;;;;;;;;;;;;8.15;59.63;99859.62;4289167;33;20274;-82
2022/02/05 08:56:06;;;;;;;;;;;;;;;8.15;59.64;99887.28;4314569;33;20025;-83
2022/02/05 08:58:32;;;;;;;;;;;;;;;8.11;59.63;99891.69;4317885;33;20001;-83
2022/02/05 09:01:15;;;;;;;;;;;;;;;8.28;59.63;99902.59;4317828;33;20071;-83
2022/02/05 09:03:48;;;;;;;;;;;;;;;8.15;59.63;99921.84;4317293;33;19984;-83
2022/02/05 09:06:13;;;;;;;;;;;;;;;8.41;59.65;99936.06;4317763;33;20000;-83
2022/02/05 09:11:13;;;;;;;;;;;;;;;8.52;59.66;99947.09;4304378;33;20378;-82
2022/02/05 09:16:07;;;;;;;;;;;;;;;8.66;59.66;99936.41;4317831;33;20064;-83
2022/02/05 09:18:32;;;;;;;;;;;;;;;8.77;59.67;99960.41;4317216;33;20004;-82
2022/02/05 09:20:58;;;;;;;;;;;;;;;8.70;59.66;99945.84;4316440;33;20047;-83
2022/02/05 09:23:23;;;;;;;;;;;;;;;8.70;59.67;99958.81;4303768;33;20105;-82
2022/02/05 09:25:48;;;;;;;;;;;;;;;8.42;59.65;99950.75;4316398;33;19996;-83
2022/02/05 09:28:14;;;;;;;;;;;;;;;8.46;59.66;99953.25;4304600;33;19986;-84
2022/02/05 09:31:01;;;;;;;;;;;;;;;8.42;59.64;99946.41;4317547;33;20008;-84
2022/02/05 09:33:26;;;;;;;;;;;;;;;8.50;59.65;99949.69;4306796;33;20051;-83
2022/02/05 09:35:51;;;;;;;;;;;;;;;8.57;59.65;99955.63;4317686;33;20047;-84
2022/02/05 09:38:16;;;;;;;;;;;;;;;8.55;59.65;99967.78;4317281;33;22846;-82
2022/02/05 09:40:41;;;;;;;;;;;;;;;8.28;59.63;99946.66;4317184;33;29376;-84
2022/02/05 09:43:07;;;;;;;;;;;;;;;8.39;59.65;99962.03;4317132;33;25489;-84
2022/02/05 09:45:34;;;;;;;;;;;;;;;8.46;59.65;99970.53;4316981;33;22983;-83
2022/02/05 09:47:59;;;;;;;;;;;;;;;8.40;59.65;99957.69;4304335;33;19981;-83
2022/02/05 09:50:24;;;;;;;;;;;;;;;8.43;59.64;99979.25;4303600;33;24120;-84
2022/02/05 09:52:52;;;;;;;;;;;;;;;8.40;59.65;99988.84;4316973;33;20976;-82
2022/02/05 09:55:17;;;;;;;;;;;;;;;8.41;59.65;99967.19;4304357;33;20028;-83
2022/02/05 09:57:42;;;;;;;;;;;;;;;8.45;59.65;99968.84;4304242;33;20683;-83
2022/02/05 10:00:13;;;;;;;;;;;;;;;8.53;59.66;99979.94;4327892;33;20007;-83
2022/02/05 10:02:40;;;;;;;;;;;;;;;8.29;59.65;99984.69;4303967;33;20004;-83
2022/02/05 10:05:08;;;;;;;;;;;;;;;8.63;59.66;99990.97;4314098;33;19984;-82
2022/02/05 10:07:34;;;;;;;;;;;;;;;8.76;59.67;99997.62;4316209;33;19972;-83
2022/02/05 10:10:04;;;;;;;;;;;;;;;8.85;59.67;99998.28;4302870;33;20043;-83
2022/02/05 10:12:29;;;;;;;;;;;;;;;8.67;59.66;99985.69;4303763;33;20008;-84
2022/02/05 10:14:56;;;;;;;;;;;;;;;8.62;59.66;99984.94;4316869;33;20002;-84
2022/02/05 10:17:43;;;;;;;;;;;;;;;8.64;59.66;99987.50;4303866;33;19986;-83
2022/02/05 10:20:09;;;;;;;;;;;;;;;8.72;59.66;99976.06;4303749;33;20135;-83
2022/02/05 10:22:36;;;;;;;;;;;;;;;8.92;59.68;99994.66;4303748;33;20051;-84
2022/02/05 10:25:06;;;;;;;;;;;;;;;9.06;59.68;99994.37;4303615;33;19980;-84
2022/02/05 10:27:42;;;;;;;;;;;;;;;9.13;59.69;99982.09;4303486;33;20380;-82
2022/02/05 10:30:12;;;;;;;;;;;;;;;9.15;59.69;99991.56;4316705;33;20003;-82
2022/02/05 10:32:42;;;;;;;;;;;;;;;9.32;59.69;99991.19;4316986;33;19996;-83
2022/02/05 10:37:54;;;;;;;;;;;;;;;9.47;59.70;99992.59;4305132;33;19989;-83
2022/02/05 10:40:29;;;;;;;;;;;;;;;9.45;59.71;100009.94;4302796;33;20014;-83
2022/02/05 10:43:03;;;;;;;;;;;;;;;9.37;59.70;100019.66;4316165;33;19984;-82
2022/02/05 10:45:39;;;;;;;;;;;;;;;9.41;59.70;100001.38;4303165;33;19980;-82
2022/02/05 10:48:04;;;;;;;;;;;;;;;9.48;59.71;100015.94;4316586;33;20311;-87
2022/02/05 10:50:30;;;;;;;;;;;;;;;9.35;59.71;100008.44;4303053;33;20011;-83
2022/02/05 10:53:10;;;;;;;;;;;;;;;9.23;59.70;100001.81;4327135;33;20002;-83
2022/02/05 10:55:46;;;;;;;;;;;;;;;9.19;59.68;99992.34;4303318;33;20066;-83
2022/02/05 10:58:20;;;;;;;;;;;;;;;9.19;59.70;100008.78;4303707;33;20186;-82
2022/02/05 11:05:55;;;;;;;;;;;;;;;9.41;59.70;100018.69;4316475;33;19998;-82
2022/02/05 11:08:22;;;;;;;;;;;;;;;9.45;59.71;100007.34;4302856;33;19987;-83
2022/02/05 11:18:39;;;;;;;;;;;;;;;10.10;59.74;100010.94;4305975;33;19980;-83
2022/02/05 11:21:05;;;;;;;;;;;;;;;10.14;59.74;100017.75;4307060;33;20256;-83
2022/02/05 11:23:30;;;;;;;;;;;;;;;9.80;59.73;100016.91;4305169;33;20022;-83
2022/02/05 11:25:55;;;;;;;;;;;;;;;9.75;59.72;100022.22;4293086;33;20279;-82
2022/02/05 11:28:40;;;;;;;;;;;;;;;9.64;59.71;100020.75;4303822;33;20020;-84
2022/02/05 11:31:38;;;;;;;;;;;;;;;9.63;59.71;100017.31;4304157;33;20000;-84
2022/02/05 11:34:13;;;;;;;;;;;;;;;9.66;59.72;100030.22;4301042;33;20107;-84
2022/02/05 11:36:39;;;;;;;;;;;;;;;10.05;59.74;100027.56;4317780;33;19972;-83
2022/02/05 11:39:04;;;;;;;;;;;;;;;9.82;59.73;100028.13;4303817;33;19994;-84
2022/02/05 11:41:31;;;;;;;;;;;;;;;9.81;59.73;100032.47;4303991;33;20003;-84
2022/02/05 11:44:15;;;;;;;;;;;;;;;9.85;59.73;100038.44;4316212;33;19991;-83
2022/02/05 11:46:41;;;;;;;;;;;;;;;9.98;59.74;100045.06;4317301;33;20353;-83
2022/02/05 11:49:06;;;;;;;;;;;;;;;9.99;59.74;100051.97;4303816;33;20059;-84
2022/02/05 11:51:32;;;;;;;;;;;;;;;9.92;59.73;100034.78;4317763;33;20035;-84
2022/02/05 11:53:57;;;;;;;;;;;;;;;9.89;59.73;100036.63;4304099;33;20023;-84
2022/02/05 11:57:06;;;;;;;;;;;;;;;10.11;59.75;100045.59;4303951;33;20055;-84
2022/02/05 11:59:49;;;;;;;;;;;;;;;10.11;59.75;100041.25;4283370;33;19989;-84
2022/02/05 12:02:18;;;;;;;;;;;;;;;10.22;59.75;100055.78;4271803;33;20030;-84
2022/02/05 12:04:43;;;;;;;;;;;;;;;10.19;59.75;100042.81;4311616;33;20011;-84
2022/02/05 12:07:09;;;;;;;;;;;;;;;10.16;59.74;100064.53;4316053;33;19988;-84
2022/02/05 12:09:41;;;;;;;;;;;;;;;9.87;59.74;100057.47;4304201;33;19993;-83
2022/02/05 12:12:22;;;;;;;;;;;;;;;9.92;59.73;100067.75;4317125;33;20057;-84
2022/02/05 12:15:06;;;;;;;;;;;;;;;9.82;59.73;100061.91;4317405;33;20007;-85
2022/02/05 12:17:53;;;;;;;;;;;;;;;9.88;59.73;100074.75;4317436;33;19976;-84
2022/02/05 12:20:24;;;;;;;;;;;;;;;9.75;59.72;100058.63;4317172;33;19984;-84
2022/02/05 12:25:33;;;;;;;;;;;;;;;9.63;59.71;100061.50;4317229;33;20000;-84
2022/02/05 12:28:17;;;;;;;;;;;;;;;9.84;59.73;100070.53;4302730;33;20046;-83
2022/02/05 12:30:44;;;;;;;;;;;;;;;9.75;59.73;100073.38;4303649;33;20469;-83
2022/02/05 12:33:10;;;;;;;;;;;;;;;9.57;59.71;100065.97;4303946;33;20008;-84
2022/02/05 12:35:35;;;;;;;;;;;;;;;9.72;59.73;100068.25;4317013;33;20044;-84
2022/02/05 12:38:04;;;;;;;;;;;;;;;9.75;59.73;100070.75;4303687;33;19980;-83
2022/02/05 12:40:30;;;;;;;;;;;;;;;9.49;59.72;100090.41;4303458;33;20801;-83
2022/02/05 12:42:56;;;;;;;;;;;;;;;9.37;59.71;100095.00;4303454;33;19996;-83
2022/02/05 12:45:48;;;;;;;;;;;;;;;9.36;59.71;100086.34;4303688;33;20003;-83
2022/02/05 12:48:17;;;;;;;;;;;;;;;9.46;59.71;100071.41;4317001;33;19985;-82
2022/02/05 12:50:42;;;;;;;;;;;;;;;9.28;59.70;100101.25;4303783;33;20774;-85
2022/02/05 12:53:08;;;;;;;;;;;;;;;8.93;59.68;100081.19;4303546;33;20028;-83
2022/02/05 12:55:37;;;;;;;;;;;;;;;8.86;59.67;100077.03;4316826;33;19988;-83
2022/02/05 12:58:02;;;;;;;;;;;;;;;8.97;59.69;100069.00;4316684;33;20455;-84
2022/02/05 13:00:28;;;;;;;;;;;;;;;9.25;59.70;100070.16;4315572;33;20016;-82
2022/02/05 13:02:53;;;;;;;;;;;;;;;9.19;59.70;100078.91;4316473;33;21607;-80
2022/02/05 13:05:18;;;;;;;;;;;;;;;9.22;59.70;100067.59;4316027;33;19999;-83
2022/02/05 13:07:46;;;;;;;;;;;;;;;9.21;59.70;100079.72;4303249;33;31254;-85
2022/02/05 13:10:12;;;;;;;;;;;;;;;9.37;59.71;100089.81;4317446;33;20344;-83
2022/02/05 13:12:40;;;;;;;;;;;;;;;9.26;59.69;100091.78;4316931;33;20020;-83
2022/02/05 13:15:23;;;;;;;;;;;;;;;9.23;59.70;100092.72;4304582;33;20059;-84
2022/02/05 13:29:25;;;;;;;;;;;;;;;9.76;59.72;100133.13;4306138;33;20051;-82
2022/02/05 13:34:11;;;;;;;;;;;;;;;9.74;59.73;100115.84;4306204;33;20371;-83
2022/02/05 13:39:17;;;;;;;;;;;;;;;9.68;59.72;100128.97;4317266;33;20006;-81
2022/02/05 13:41:55;;;;;;;;;;;;;;;9.42;59.71;100124.34;4318104;33;20258;-83
2022/02/05 13:44:25;;;;;;;;;;;;;;;9.45;59.71;100121.66;4317817;33;19980;-81
2022/02/05 13:47:00;;;;;;;;;;;;;;;9.37;59.71;100110.59;4304995;33;20064;-82
2022/02/05 13:49:25;;;;;;;;;;;;;;;9.58;59.72;100098.88;4317713;33;20413;-81
2022/02/05 13:51:50;;;;;;;;;;;;;;;9.58;59.72;100117.06;4303517;33;29624;-81
2022/02/05 13:54:16;;;;;;;;;;;;;;;9.47;59.71;100112.97;4316122;33;20000;-82
2022/02/05 13:56:41;;;;;;;;;;;;;;;9.52;59.72;100112.88;4303344;33;32687;-83
2022/02/05 13:59:07;;;;;;;;;;;;;;;9.55;59.71;100118.00;4304064;33;19996;-83
2022/02/05 14:01:34;;;;;;;;;;;;;;;9.29;59.70;100126.34;4304029;33;19999;-82
2022/02/05 14:04:19;;;;;;;;;;;;;;;9.29;59.70;100131.53;4317373;33;19988;-83
2022/02/05 14:06:54;;;;;;;;;;;;;;;9.05;59.69;100127.69;4317276;33;20334;-83
2022/02/05 14:09:27;;;;;;;;;;;;;;;8.99;59.68;100130.44;4303941;33;20004;-83
2022/02/05 14:11:52;;;;;;;;;;;;;;;8.95;59.68;100125.28;4317523;33;20003;-83
2022/02/05 14:14:27;;;;;;;;;;;;;;;8.82;59.68;100129.88;4304287;33;20051;-82
2022/02/05 14:16:53;;;;;;;;;;;;;;;8.96;59.69;100143.44;4304356;33;20319;-82
2022/02/05 14:19:25;;;;;;;;;;;;;;;8.82;59.68;100129.88;4317319;33;19980;-82
2022/02/05 14:21:52;;;;;;;;;;;;;;;9.01;59.68;100127.78;4303717;33;20048;-83
2022/02/05 14:24:29;;;;;;;;;;;;;;;8.98;59.69;100128.69;4315904;33;20040;-82
2022/02/05 14:27:06;;;;;;;;;;;;;;;8.85;59.68;100135.87;4303782;33;20058;-83
2022/02/05 14:30:10;;;;;;;;;;;;;;;8.91;59.68;100129.69;4303758;33;20071;-83
2022/02/05 14:32:40;;;;;;;;;;;;;;;8.63;59.67;100134.53;4305123;33;20284;-83
2022/02/05 14:40:43;;;;;;;;;;;;;;;8.74;59.66;100162.87;4305616;33;20042;-82
2022/02/05 14:43:08;;;;;;;;;;;;;;;8.59;59.67;100192.56;4306618;33;19976;-83
2022/02/05 14:45:33;;;;;;;;;;;;;;;8.60;59.67;100189.09;4303421;33;20111;-82
2022/02/05 14:47:59;;;;;;;;;;;;;;;8.62;59.66;100176.94;4316904;33;20451;-82
2022/02/05 14:50:24;;;;;;;;;;;;;;;8.60;59.67;100195.16;4303548;33;19972;-82
2022/02/05 14:52:49;;;;;;;;;;;;;;;8.68;59.67;100200.19;4318449;33;19991;-82
2022/02/05 14:55:14;;;;;;;;;;;;;;;8.71;59.67;100184.56;4317992;33;28326;-83
2022/02/05 14:57:40;;;;;;;;;;;;;;;8.70;59.67;100189.78;4305422;33;19999;-82
2022/02/05 15:00:05;;;;;;;;;;;;;;;8.38;59.65;100198.12;4318469;33;22166;-83
2022/02/05 15:02:30;;;;;;;;;;;;;;;8.50;59.65;100197.91;4304320;33;20024;-83
2022/02/05 15:04:56;;;;;;;;;;;;;;;8.42;59.65;100200.63;4318914;33;19994;-83
2022/02/05 15:07:21;;;;;;;;;;;;;;;8.42;59.65;100204.97;4293165;33;20014;-83
2022/02/05 15:09:46;;;;;;;;;;;;;;;8.41;59.65;100201.50;4318512;33;19984;-83
2022/02/05 15:12:11;;;;;;;;;;;;;;;8.47;59.66;100190.16;4318270;33;26955;-83
2022/02/05 15:14:37;;;;;;;;;;;;;;;8.46;59.66;100197.09;4305413;33;20044;-83
2022/02/05 15:17:03;;;;;;;;;;;;;;;8.45;59.66;100191.94;4318779;33;20017;-83
2022/02/05 15:19:29;;;;;;;;;;;;;;;8.50;59.66;100192.72;4318602;33;19994;-83
2022/02/05 15:21:54;;;;;;;;;;;;;;;8.35;59.65;100199.03;4317837;33;32789;-83
2022/02/05 15:24:19;;;;;;;;;;;;;;;8.26;59.65;100204.28;4318426;33;20008;-83
2022/02/05 15:26:44;;;;;;;;;;;;;;;8.12;59.63;100204.53;4318059;33;26785;-82
2022/02/05 15:29:10;;;;;;;;;;;;;;;8.24;59.65;100209.50;4304760;33;20030;-83
2022/02/05 15:31:37;;;;;;;;;;;;;;;8.12;59.63;100222.69;4318595;33;20232;-82
2022/02/05 15:34:04;;;;;;;;;;;;;;;8.13;59.64;100221.78;4318573;33;19994;-83
2022/02/05 15:36:36;;;;;;;;;;;;;;;8.23;59.64;100225.94;4305468;33;20097;-83
2022/02/05 15:39:11;;;;;;;;;;;;;;;8.19;59.64;100234.66;4318542;33;20346;-83
2022/02/05 15:44:22;;;;;;;;;;;;;;;8.24;59.65;100244.97;4318170;33;20516;-83
2022/02/05 15:46:47;;;;;;;;;;;;;;;8.21;59.64;100243.28;4318589;33;19994;-83
2022/02/05 15:49:13;;;;;;;;;;;;;;;8.21;59.64;100248.47;4318411;33;19988;-83
2022/02/05 15:51:38;;;;;;;;;;;;;;;8.06;59.63;100256.47;4318633;33;20012;-83
2022/02/05 15:54:05;;;;;;;;;;;;;;;8.02;59.63;100260.81;4305283;33;20023;-83
2022/02/05 15:59:01;;;;;;;;;;;;;;;8.21;59.64;100261.44;4318502;33;19984;-83